Otsego, MI (49078)

11:18 PM EDT on July 27, 2016 (GMT -0400)
Weather Coffee Shoppe - Otsego | | Change Station

Elev 722 ft 42.46 °N, 85.71 °W | Updated 5 minutes ago

Clear
Clear
69.4 °F
Feels Like 69.4 °F
N
0.0
Wind Variable Wind from SSW

Today
High -- | Low -- °F
--% Chance of Precip.
Yesterday
High -- | Low -- °F
Precip. -- in
Pressure 29.95 in
Visibility 10.0 miles
Clouds Clear
Dew Point 63 °F
Humidity 81%
Rainfall 0.00 in
Snow Depth Not available.
6:30 AM 9:07 PM
Last Quarter, 37% visible
METAR KAZO 280253Z AUTO 00000KT 10SM CLR 23/18 A2997 RMK AO2 SLP142 T02280178 53004
Pressure 29.95 in
Visibility 10.0 miles
Clouds Clear
Dew Point 63 °F
Humidity 81%
Rainfall 0.00 in
Snow Depth Not available.
6:30 AM 9:07 PM
Last Quarter, 37% visible
METAR KAZO 280253Z AUTO 00000KT 10SM CLR 23/18 A2997 RMK AO2 SLP142 T02280178 53004

10-Day Weather Forecast

Almanac

Astronomy

Jul. 27, 2016 Rise Set
Actual Time
Civil Twilight
Nautical Twilight
Astronomical Twilight
Moon
Length of Visible Light
Length of Day
Tomorrow will be .
, % of the Moon is Illuminated

Today's Extremes

State Highs State Lows

Community

WunderPhotos

Upload Photos

1,928,037 photos uploaded!

WunderBlog® & News

Nearby

Air Quality

  Air Quality AQ Index Pollutant
Not available.

Snow Depth

Station Depth Elevation

Earthquake Activity

City Distance Mag. Time & Date
Minimum magnitude displayed is 2.5.

Coastal Water Temperatures

Place Temperature

Stations

Nearby Weather Stations

Station Location Temp. Windchill Dew Point Humidity Wind Precip. Elev Updated Type
                   

Watches & Warnings

There are currently no watches in effect.